createdAt,value
2022-08-26T00:02:13.940Z,26.80
2022-08-26T00:05:04.591Z,26.80
2022-08-26T00:07:53.596Z,26.81
2022-08-26T00:10:43.293Z,26.81
2022-08-26T00:13:31.396Z,26.82
2022-08-26T00:16:19.575Z,26.83
2022-08-26T00:19:08.108Z,26.83
2022-08-26T00:21:56.175Z,26.80
2022-08-26T00:24:47.981Z,26.77
2022-08-26T00:27:37.169Z,26.73
2022-08-26T00:30:29.603Z,26.71
2022-08-26T00:33:20.356Z,26.70
2022-08-26T00:36:19.986Z,26.71
2022-08-26T00:39:10.121Z,26.66
2022-08-26T00:41:58.247Z,26.64
2022-08-26T00:44:46.024Z,26.64
2022-08-26T00:47:45.019Z,26.63
2022-08-26T00:50:46.638Z,26.63
2022-08-26T00:53:42.367Z,26.63
2022-08-26T00:56:36.554Z,26.66
2022-08-26T00:59:26.272Z,26.70
2022-08-26T01:02:19.949Z,26.76
2022-08-26T01:05:11.762Z,26.80
2022-08-26T01:07:59.863Z,26.80
2022-08-26T01:10:48.154Z,26.81
2022-08-26T01:13:39.840Z,26.80
2022-08-26T01:16:27.717Z,26.81
2022-08-26T01:19:43.645Z,26.82
2022-08-26T01:23:04.777Z,26.81
2022-08-26T01:26:05.305Z,26.80
2022-08-26T01:28:58.233Z,26.80
2022-08-26T01:31:52.973Z,26.78
2022-08-26T01:34:41.140Z,26.77
2022-08-26T01:37:36.816Z,26.74
2022-08-26T01:40:33.825Z,26.74
2022-08-26T01:43:27.720Z,26.77
2022-08-26T01:46:17.243Z,26.80
2022-08-26T01:49:07.865Z,26.84
2022-08-26T01:51:57.800Z,26.86
2022-08-26T01:54:46.231Z,26.85
2022-08-26T01:57:38.335Z,26.85
2022-08-26T02:00:26.805Z,26.87
2022-08-26T02:03:17.372Z,26.84
2022-08-26T02:06:09.415Z,26.88
2022-08-26T02:09:02.189Z,26.90
2022-08-26T02:11:51.057Z,26.94
2022-08-26T02:14:47.318Z,26.95
2022-08-26T02:17:46.241Z,26.95
2022-08-26T02:20:33.933Z,26.98
2022-08-26T02:23:24.349Z,27.01
2022-08-26T02:26:20.598Z,27.01
2022-08-26T02:29:26.866Z,26.97
2022-08-26T02:32:18.616Z,26.96
2022-08-26T02:35:09.098Z,26.99
2022-08-26T02:38:02.721Z,26.97
2022-08-26T02:40:58.259Z,26.90
2022-08-26T02:43:46.218Z,26.88
2022-08-26T02:46:34.465Z,26.86
2022-08-26T02:49:24.194Z,26.80
2022-08-26T02:52:12.686Z,26.82
2022-08-26T02:55:00.628Z,26.85
2022-08-26T02:57:50.062Z,26.84
2022-08-26T03:00:52.546Z,26.84
2022-08-26T03:03:41.495Z,26.86
2022-08-26T03:06:29.752Z,26.87
2022-08-26T03:09:21.429Z,26.87
2022-08-26T03:12:12.051Z,26.83
2022-08-26T03:15:01.808Z,26.81
2022-08-26T03:17:50.383Z,26.76
2022-08-26T03:20:38.927Z,26.74
2022-08-26T03:23:26.636Z,26.73
2022-08-26T03:26:16.290Z,26.75
2022-08-26T03:29:23.913Z,26.76
2022-08-26T03:32:12.099Z,26.74
2022-08-26T03:34:59.707Z,26.75
2022-08-26T03:37:48.102Z,26.78
2022-08-26T03:40:38.073Z,26.80
2022-08-26T03:43:27.027Z,26.80
2022-08-26T03:46:15.270Z,26.79
2022-08-26T03:49:06.263Z,26.82
2022-08-26T03:51:54.829Z,26.85
2022-08-26T03:54:43.517Z,26.88
2022-08-26T03:57:31.495Z,26.79
2022-08-26T04:00:21.028Z,26.76
2022-08-26T04:03:09.966Z,26.76
2022-08-26T04:05:58.336Z,26.78
2022-08-26T04:08:46.145Z,26.81
2022-08-26T04:11:39.663Z,26.78
2022-08-26T04:14:28.506Z,26.82
2022-08-26T04:17:16.406Z,26.87
2022-08-26T04:20:07.813Z,26.88
2022-08-26T04:22:57.033Z,26.85
2022-08-26T04:25:44.769Z,26.91
2022-08-26T04:28:32.791Z,26.91
2022-08-26T04:31:21.067Z,26.96
2022-08-26T04:34:11.008Z,27.00
2022-08-26T04:36:59.629Z,27.03
2022-08-26T04:39:54.810Z,27.05
2022-08-26T04:42:43.027Z,27.03
2022-08-26T04:45:30.981Z,27.04
2022-08-26T04:48:18.984Z,27.12
2022-08-26T04:51:06.953Z,27.19
2022-08-26T04:53:57.920Z,27.23
2022-08-26T04:56:49.620Z,27.27
2022-08-26T04:59:39.410Z,27.33
2022-08-26T05:02:28.209Z,27.31
2022-08-26T05:05:18.044Z,27.35
2022-08-26T05:08:06.226Z,27.39
2022-08-26T05:10:56.408Z,27.38
2022-08-26T05:13:47.602Z,27.37
2022-08-26T05:16:35.622Z,27.40
2022-08-26T05:19:24.079Z,27.44
2022-08-26T05:22:13.244Z,27.50
2022-08-26T05:25:01.675Z,27.55
2022-08-26T05:27:49.320Z,27.56
2022-08-26T05:30:38.399Z,27.56
2022-08-26T05:33:26.775Z,27.60
2022-08-26T05:36:19.159Z,27.63
2022-08-26T05:39:08.187Z,27.70
2022-08-26T05:41:59.098Z,27.77
2022-08-26T05:44:53.715Z,27.90
2022-08-26T05:47:44.047Z,28.04
2022-08-26T05:50:32.086Z,28.18
2022-08-26T05:53:22.329Z,28.27
2022-08-26T05:56:14.430Z,28.37
2022-08-26T05:59:03.117Z,28.47
2022-08-26T06:01:55.104Z,28.59
2022-08-26T06:04:43.543Z,28.62
2022-08-26T06:07:50.824Z,28.63
2022-08-26T06:10:52.709Z,28.63
2022-08-26T06:13:41.788Z,28.63
2022-08-26T06:16:31.467Z,28.64
2022-08-26T06:19:19.522Z,28.67
2022-08-26T06:22:27.839Z,28.69
2022-08-26T06:25:34.176Z,28.73
2022-08-26T06:28:22.329Z,28.75
2022-08-26T06:31:10.873Z,28.77
2022-08-26T06:33:59.062Z,28.79
2022-08-26T06:36:49.778Z,28.87
2022-08-26T06:39:41.291Z,28.98
2022-08-26T06:42:29.835Z,29.10
2022-08-26T06:45:19.631Z,29.23
2022-08-26T06:48:08.304Z,29.44
2022-08-26T06:51:14.153Z,29.89
2022-08-26T06:54:03.209Z,30.38
2022-08-26T06:56:51.021Z,30.17
2022-08-26T06:59:39.241Z,29.77
2022-08-26T07:02:28.691Z,30.40
2022-08-26T07:05:16.921Z,30.75
2022-08-26T07:08:05.747Z,30.07
2022-08-26T07:10:53.895Z,29.67
2022-08-26T07:13:43.971Z,30.26
2022-08-26T07:16:32.650Z,30.62
2022-08-26T07:19:29.861Z,30.25
2022-08-26T07:22:19.012Z,30.32
2022-08-26T07:25:09.120Z,31.57
2022-08-26T07:27:56.724Z,33.69
2022-08-26T07:30:44.618Z,35.38
2022-08-26T07:33:32.764Z,36.42
2022-08-26T07:36:23.357Z,37.21
2022-08-26T07:39:11.746Z,37.86
2022-08-26T07:42:07.546Z,38.39
2022-08-26T07:44:56.235Z,39.06
2022-08-26T07:47:45.827Z,39.91
2022-08-26T07:50:48.955Z,40.79
2022-08-26T07:53:37.833Z,41.49
2022-08-26T07:56:26.012Z,41.31
2022-08-26T07:59:15.288Z,40.40
2022-08-26T08:02:03.709Z,39.60
2022-08-26T08:04:51.974Z,38.94
2022-08-26T08:07:45.373Z,38.10
2022-08-26T08:10:36.466Z,37.18
2022-08-26T08:13:25.179Z,36.25
2022-08-26T08:16:13.055Z,35.33
2022-08-26T08:19:01.436Z,34.45
2022-08-26T08:21:51.778Z,33.71
2022-08-26T08:24:40.128Z,33.19
2022-08-26T08:27:28.293Z,32.90
2022-08-26T08:30:22.889Z,32.69
2022-08-26T08:33:11.042Z,32.53
2022-08-26T08:36:00.168Z,32.51
2022-08-26T08:38:48.129Z,32.54
2022-08-26T08:41:45.452Z,32.59
2022-08-26T08:44:38.117Z,32.80
2022-08-26T08:48:16.376Z,33.03
2022-08-26T08:51:46.140Z,33.24
2022-08-26T08:54:34.306Z,33.61
2022-08-26T08:57:45.624Z,34.01
2022-08-26T09:00:46.778Z,34.66
2022-08-26T09:04:12.395Z,35.69
2022-08-26T09:07:10.625Z,36.94
2022-08-26T09:10:40.854Z,37.28
2022-08-26T09:13:31.747Z,37.21
2022-08-26T09:16:25.249Z,37.24
2022-08-26T09:19:31.235Z,37.29
2022-08-26T09:22:35.150Z,37.29
2022-08-26T09:25:24.206Z,37.22
2022-08-26T09:28:18.783Z,37.09
2022-08-26T09:31:28.121Z,36.82
2022-08-26T09:34:25.320Z,36.49
2022-08-26T09:37:13.303Z,36.13
2022-08-26T09:40:22.796Z,35.81
2022-08-26T09:43:22.419Z,35.47
2022-08-26T09:46:27.891Z,35.31
2022-08-26T09:49:38.007Z,35.29
2022-08-26T09:52:28.057Z,35.70
2022-08-26T09:55:23.876Z,36.03
2022-08-26T09:58:32.904Z,36.01
2022-08-26T10:01:24.170Z,35.96
2022-08-26T10:04:22.215Z,36.14
2022-08-26T10:07:10.270Z,36.81
2022-08-26T10:09:58.254Z,37.58
2022-08-26T10:13:05.177Z,38.21
2022-08-26T10:16:02.272Z,38.89
2022-08-26T10:19:00.849Z,39.80
2022-08-26T10:22:13.921Z,40.57
2022-08-26T10:25:07.473Z,41.42
2022-08-26T10:28:12.284Z,41.99
2022-08-26T10:31:30.374Z,42.63
2022-08-26T10:34:26.816Z,43.37
2022-08-26T10:37:21.570Z,43.75
2022-08-26T10:40:24.965Z,43.98
2022-08-26T10:45:59.435Z,43.89
2022-08-26T10:49:13.229Z,42.32
2022-08-26T10:52:16.620Z,42.01
2022-08-26T10:55:28.873Z,41.92
2022-08-26T10:58:56.918Z,42.07
2022-08-26T11:01:52.705Z,42.36
2022-08-26T11:04:57.386Z,42.48
2022-08-26T11:07:54.847Z,42.59
2022-08-26T11:10:42.863Z,42.80
2022-08-26T11:13:57.408Z,42.94
2022-08-26T11:16:52.426Z,42.88
2022-08-26T11:19:59.445Z,42.34
2022-08-26T11:22:55.132Z,41.39
2022-08-26T11:26:01.177Z,40.47
2022-08-26T11:28:50.753Z,39.73
2022-08-26T11:31:39.736Z,39.15
2022-08-26T11:35:04.123Z,38.73
2022-08-26T11:37:59.735Z,38.47
2022-08-26T11:41:09.079Z,38.36
2022-08-26T11:43:59.778Z,38.34
2022-08-26T11:46:54.607Z,38.39
2022-08-26T11:49:42.494Z,38.28
2022-08-26T11:52:31.297Z,38.11
2022-08-26T11:55:23.398Z,37.79
2022-08-26T11:58:14.547Z,37.52
2022-08-26T12:01:09.587Z,37.33
2022-08-26T12:04:00.697Z,37.26
2022-08-26T12:06:53.327Z,37.19
2022-08-26T12:09:55.399Z,36.91
2022-08-26T12:12:54.283Z,36.45
2022-08-26T12:15:41.881Z,35.96
2022-08-26T12:18:38.384Z,35.39
2022-08-26T12:21:34.940Z,34.84
2022-08-26T12:24:23.062Z,34.37
2022-08-26T12:27:24.179Z,33.86
2022-08-26T12:30:21.446Z,33.43
2022-08-26T12:33:22.713Z,33.14
2022-08-26T12:36:12.144Z,32.80
2022-08-26T12:39:14.601Z,32.44
2022-08-26T12:42:26.386Z,32.19
2022-08-26T12:45:46.413Z,32.08
2022-08-26T12:48:38.734Z,31.96
2022-08-26T12:51:35.029Z,31.87
2022-08-26T12:54:42.701Z,31.84
2022-08-26T12:57:36.161Z,31.79
2022-08-26T13:00:39.736Z,31.76
2022-08-26T13:03:34.922Z,31.73
2022-08-26T13:06:22.996Z,31.75
2022-08-26T13:09:10.896Z,31.81
2022-08-26T13:11:59.586Z,31.89
2022-08-26T13:14:51.075Z,31.91
2022-08-26T13:17:39.610Z,31.91
2022-08-26T13:20:28.272Z,31.91
2022-08-26T13:23:21.683Z,31.90
2022-08-26T13:26:09.614Z,31.90
2022-08-26T13:29:01.683Z,31.83
2022-08-26T13:31:50.572Z,31.77
2022-08-26T13:34:39.174Z,31.72
2022-08-26T13:37:34.443Z,31.64
2022-08-26T13:40:22.803Z,31.53
2022-08-26T13:43:12.074Z,31.42
2022-08-26T13:46:01.741Z,31.31
2022-08-26T13:48:49.651Z,31.26
2022-08-26T13:51:38.415Z,31.18
2022-08-26T13:54:26.151Z,31.09
2022-08-26T13:57:15.894Z,31.00
2022-08-26T14:00:05.754Z,30.93
2022-08-26T14:03:00.719Z,30.87
2022-08-26T14:05:49.069Z,30.82
2022-08-26T14:08:38.119Z,30.80
2022-08-26T14:11:27.828Z,30.82
2022-08-26T14:14:15.725Z,30.80
2022-08-26T14:17:04.702Z,30.76
2022-08-26T14:19:53.875Z,30.69
2022-08-26T14:23:03.637Z,30.63
2022-08-26T14:25:54.161Z,30.57
2022-08-26T14:28:42.015Z,30.54
2022-08-26T14:31:32.007Z,30.51
2022-08-26T14:34:20.301Z,30.46
2022-08-26T14:37:11.458Z,30.41
2022-08-26T14:40:01.868Z,30.36
2022-08-26T14:42:54.038Z,30.34
2022-08-26T14:45:45.836Z,30.27
2022-08-26T14:48:33.654Z,30.18
2022-08-26T14:51:21.996Z,30.13
2022-08-26T14:54:13.749Z,30.11
2022-08-26T14:57:07.470Z,30.03
2022-08-26T14:59:55.395Z,29.98
2022-08-26T15:02:44.703Z,29.93
2022-08-26T15:05:34.084Z,29.89
2022-08-26T15:08:22.099Z,29.85
2022-08-26T15:11:10.570Z,29.84
2022-08-26T15:14:00.025Z,29.82
2022-08-26T15:16:50.773Z,29.79
2022-08-26T15:19:39.193Z,29.77
2022-08-26T15:22:29.448Z,29.72
2022-08-26T15:25:18.233Z,29.65
2022-08-26T15:28:06.475Z,29.57
2022-08-26T15:30:54.552Z,29.50
2022-08-26T15:33:42.977Z,29.43
2022-08-26T15:36:32.578Z,29.33
2022-08-26T15:39:21.378Z,29.21
2022-08-26T15:42:09.785Z,29.11
2022-08-26T15:44:57.370Z,29.00
2022-08-26T15:47:49.338Z,28.88
2022-08-26T15:50:53.825Z,28.75
2022-08-26T15:53:42.041Z,28.65
2022-08-26T15:56:35.125Z,28.53
2022-08-26T15:59:23.274Z,28.43
2022-08-26T16:02:11.782Z,28.32
2022-08-26T16:05:00.517Z,28.22
2022-08-26T16:07:48.858Z,28.13
2022-08-26T16:10:45.454Z,28.04
2022-08-26T16:13:39.748Z,27.95
2022-08-26T16:16:28.337Z,27.86
2022-08-26T16:19:19.143Z,27.76
2022-08-26T16:22:09.419Z,27.66
2022-08-26T16:25:00.392Z,27.56
2022-08-26T16:27:48.525Z,27.45
2022-08-26T16:30:37.918Z,27.33
2022-08-26T16:33:29.398Z,27.22
2022-08-26T16:36:18.081Z,27.13
2022-08-26T16:39:08.263Z,27.02
2022-08-26T16:41:56.220Z,26.91
2022-08-26T16:44:44.696Z,26.83
2022-08-26T16:47:33.596Z,26.75
2022-08-26T16:50:23.902Z,26.65
2022-08-26T16:56:05.299Z,26.44
2022-08-26T16:58:54.850Z,26.33
2022-08-26T17:01:42.499Z,26.22
2022-08-26T17:04:32.054Z,26.11
2022-08-26T17:07:19.971Z,25.99
2022-08-26T17:10:09.237Z,25.88
2022-08-26T17:12:57.614Z,25.76
2022-08-26T17:15:55.013Z,25.65
2022-08-26T17:18:46.575Z,25.52
2022-08-26T17:21:36.867Z,25.41
2022-08-26T17:24:25.795Z,25.27
2022-08-26T17:27:14.160Z,25.14
2022-08-26T17:30:02.272Z,25.00
2022-08-26T17:32:51.760Z,24.86
2022-08-26T17:35:39.338Z,25.03
2022-08-26T17:38:29.374Z,26.12
2022-08-26T17:41:17.405Z,26.92
2022-08-26T17:44:06.373Z,27.18
2022-08-26T17:46:54.250Z,26.52
2022-08-26T17:49:42.248Z,25.89
2022-08-26T17:52:30.758Z,25.44
2022-08-26T17:55:19.361Z,25.09
2022-08-26T17:58:07.513Z,25.10
2022-08-26T18:00:55.482Z,26.06
2022-08-26T18:03:43.675Z,26.79
2022-08-26T18:06:31.917Z,27.21
2022-08-26T18:09:20.100Z,27.24
2022-08-26T18:12:08.793Z,26.48
2022-08-26T18:14:56.658Z,25.79
2022-08-26T18:17:45.862Z,25.28
2022-08-26T18:20:33.829Z,25.18
2022-08-26T18:23:21.911Z,26.01
2022-08-26T18:26:09.613Z,26.65
2022-08-26T18:29:02.147Z,27.04
2022-08-26T18:31:50.311Z,27.30
2022-08-26T18:34:41.026Z,27.26
2022-08-26T18:37:31.624Z,26.43
2022-08-26T18:40:19.574Z,25.70
2022-08-26T18:43:08.287Z,25.42
2022-08-26T18:46:07.251Z,26.13
2022-08-26T18:48:56.797Z,26.70
2022-08-26T18:51:46.558Z,27.04
2022-08-26T18:54:34.599Z,27.26
2022-08-26T18:57:22.838Z,27.17
2022-08-26T19:00:15.328Z,26.30
2022-08-26T19:03:03.152Z,25.49
2022-08-26T19:05:52.039Z,25.21
2022-08-26T19:08:44.508Z,25.92
2022-08-26T19:11:37.499Z,26.48
2022-08-26T19:14:32.008Z,26.80
2022-08-26T19:17:19.977Z,27.00
2022-08-26T19:20:10.971Z,27.18
2022-08-26T19:23:05.757Z,27.32
2022-08-26T19:25:59.590Z,27.14
2022-08-26T19:28:49.537Z,26.24
2022-08-26T19:31:37.554Z,25.46
2022-08-26T19:34:26.444Z,25.21
2022-08-26T19:37:14.221Z,25.92
2022-08-26T19:40:02.532Z,26.42
2022-08-26T19:42:51.077Z,26.71
2022-08-26T19:45:39.089Z,26.89
2022-08-26T19:48:26.912Z,27.04
2022-08-26T19:51:26.289Z,27.16
2022-08-26T19:54:14.448Z,27.24
2022-08-26T19:57:02.473Z,27.30
2022-08-26T19:59:50.461Z,27.37
2022-08-26T20:02:39.836Z,27.20
2022-08-26T20:05:28.809Z,26.29
2022-08-26T20:08:22.221Z,25.47
2022-08-26T20:11:16.313Z,25.23
2022-08-26T20:14:04.828Z,25.94
2022-08-26T20:16:52.920Z,26.41
2022-08-26T20:19:59.250Z,26.67
2022-08-26T20:22:47.251Z,26.83
2022-08-26T20:25:36.696Z,26.94
2022-08-26T20:28:24.671Z,27.02
2022-08-26T20:31:12.870Z,27.09
2022-08-26T20:34:02.175Z,27.16
2022-08-26T20:36:51.146Z,27.22
2022-08-26T20:39:39.423Z,27.02
2022-08-26T20:42:30.183Z,26.07
2022-08-26T20:45:18.228Z,25.25
2022-08-26T20:48:05.944Z,24.95
2022-08-26T20:51:00.801Z,25.64
2022-08-26T20:53:51.186Z,26.16
2022-08-26T20:56:40.471Z,26.42
2022-08-26T20:59:28.530Z,26.58
2022-08-26T21:02:16.529Z,26.71
2022-08-26T21:05:06.323Z,26.81
2022-08-26T21:07:54.131Z,26.91
2022-08-26T21:10:42.589Z,26.98
2022-08-26T21:13:42.920Z,27.02
2022-08-26T21:16:41.498Z,27.06
2022-08-26T21:19:30.241Z,26.83
2022-08-26T21:22:18.194Z,25.86
2022-08-26T21:25:07.327Z,25.00
2022-08-26T21:27:56.638Z,24.70
2022-08-26T21:30:44.573Z,25.37
2022-08-26T21:33:32.771Z,25.88
2022-08-26T21:36:20.670Z,26.19
2022-08-26T21:39:11.810Z,26.42
2022-08-26T21:42:00.411Z,26.61
2022-08-26T21:44:52.881Z,26.72
2022-08-26T21:47:42.026Z,26.82
2022-08-26T21:50:30.769Z,26.66
2022-08-26T21:53:19.814Z,25.72
2022-08-26T21:56:15.268Z,24.88
2022-08-26T21:59:03.058Z,24.67
2022-08-26T22:01:51.492Z,25.44
2022-08-26T22:04:39.658Z,25.98
2022-08-26T22:07:27.791Z,26.03
2022-08-26T22:10:16.016Z,25.17
2022-08-26T22:13:03.844Z,24.40
2022-08-26T22:15:52.408Z,23.86
2022-08-26T22:18:45.123Z,23.47
2022-08-26T22:21:33.555Z,23.50
2022-08-26T22:24:24.010Z,24.53
2022-08-26T22:27:14.044Z,25.25
2022-08-26T22:30:02.199Z,24.82
2022-08-26T22:32:50.789Z,24.10
2022-08-26T22:35:41.191Z,23.56
2022-08-26T22:38:29.179Z,23.50
2022-08-26T22:41:18.576Z,24.38
2022-08-26T22:44:06.761Z,25.04
2022-08-26T22:46:54.498Z,25.43
2022-08-26T22:49:42.646Z,25.67
2022-08-26T22:52:30.398Z,25.84
2022-08-26T22:55:18.499Z,25.98
2022-08-26T22:58:07.373Z,26.10
2022-08-26T23:00:55.686Z,25.95
2022-08-26T23:03:45.400Z,24.97
2022-08-26T23:06:41.171Z,24.11
2022-08-26T23:09:29.371Z,23.85
2022-08-26T23:12:17.362Z,24.59
2022-08-26T23:15:09.362Z,25.04
2022-08-26T23:17:58.622Z,25.27
2022-08-26T23:20:47.175Z,25.43
2022-08-26T23:23:35.818Z,25.54
2022-08-26T23:26:24.023Z,25.61
2022-08-26T23:29:15.787Z,25.66
2022-08-26T23:32:06.068Z,25.71
2022-08-26T23:34:56.558Z,25.50
2022-08-26T23:37:48.998Z,24.49
2022-08-26T23:40:38.855Z,23.60
2022-08-26T23:43:29.749Z,23.29
2022-08-26T23:46:19.068Z,23.99
2022-08-26T23:49:07.007Z,24.53
2022-08-26T23:52:14.142Z,24.82
2022-08-26T23:55:02.486Z,25.02
2022-08-26T23:57:50.693Z,25.16
